createdAt,value
2019-06-26T00:04:02.532Z,6.93
2019-06-26T00:09:07.372Z,7.30
2019-06-26T00:14:10.923Z,8.10
2019-06-26T00:19:14.319Z,7.30
2019-06-26T00:24:17.904Z,7.28
2019-06-26T00:29:21.436Z,6.80
2019-06-26T00:34:24.774Z,7.77
2019-06-26T00:39:28.310Z,8.00
2019-06-26T00:44:31.602Z,7.63
2019-06-26T00:49:34.788Z,8.17
2019-06-26T00:54:38.455Z,8.50
2019-06-26T00:59:42.198Z,7.50
2019-06-26T01:04:47.929Z,8.27
2019-06-26T01:09:51.452Z,9.17
2019-06-26T01:14:54.676Z,8.60
2019-06-26T01:19:57.862Z,7.63
2019-06-26T01:25:01.130Z,7.90
2019-06-26T01:30:05.824Z,8.53
2019-06-26T01:35:09.226Z,8.63
2019-06-26T01:40:12.873Z,8.13
2019-06-26T01:50:16.525Z,7.83
2019-06-26T01:55:19.820Z,8.27
2019-06-26T02:00:23.543Z,8.00
2019-06-26T02:05:26.441Z,7.83
2019-06-26T02:10:29.894Z,7.50
2019-06-26T02:15:33.601Z,7.80
2019-06-26T02:20:34.204Z,8.97
2019-06-26T02:25:37.547Z,8.53
2019-06-26T02:30:40.441Z,9.00
2019-06-26T02:35:44.067Z,8.97
2019-06-26T02:40:47.571Z,8.60
2019-06-26T02:45:50.188Z,9.10
2019-06-26T02:50:53.689Z,8.60
2019-06-26T02:55:56.655Z,8.20
2019-06-26T03:00:59.233Z,7.73
2019-06-26T03:06:02.556Z,9.00
2019-06-26T03:11:06.109Z,8.57
2019-06-26T03:16:09.356Z,9.80
2019-06-26T03:21:12.850Z,8.40
2019-06-26T03:26:15.399Z,8.17
2019-06-26T03:31:18.647Z,9.80
2019-06-26T03:36:21.966Z,9.10
2019-06-26T03:41:25.223Z,9.80
2019-06-26T03:46:28.445Z,9.50
2019-06-26T03:51:31.409Z,9.00
2019-06-26T03:56:34.739Z,9.63
2019-06-26T04:01:38.231Z,9.77
2019-06-26T04:06:41.852Z,9.40
2019-06-26T04:11:45.159Z,9.50
2019-06-26T04:16:48.694Z,10.47
2019-06-26T04:21:52.177Z,9.50
2019-06-26T04:26:55.697Z,9.00
2019-06-26T04:31:58.906Z,10.67
2019-06-26T04:37:01.940Z,10.03
2019-06-26T04:42:04.951Z,9.60
2019-06-26T04:47:07.900Z,9.80
2019-06-26T04:52:10.851Z,9.83
2019-06-26T04:57:14.414Z,9.40
2019-06-26T05:02:17.680Z,9.20
2019-06-26T05:07:21.275Z,9.80
2019-06-26T05:12:24.892Z,8.47
2019-06-26T05:17:28.439Z,8.73
2019-06-26T05:22:31.903Z,9.33
2019-06-26T05:27:34.677Z,9.60
2019-06-26T05:32:38.200Z,9.60
2019-06-26T05:37:42.482Z,9.37
2019-06-26T05:42:45.763Z,9.33
2019-06-26T05:47:49.002Z,10.13
2019-06-26T05:52:52.465Z,9.67
2019-06-26T05:57:54.960Z,9.73
2019-06-26T06:02:58.224Z,10.70
2019-06-26T06:08:01.437Z,10.00
2019-06-26T06:13:06.899Z,11.97
2019-06-26T06:18:11.902Z,10.63
2019-06-26T06:23:15.155Z,11.30
2019-06-26T06:28:17.998Z,11.30
2019-06-26T06:33:21.435Z,9.80
2019-06-26T06:38:24.980Z,12.17
2019-06-26T06:43:28.170Z,12.90
2019-06-26T06:48:31.415Z,12.10
2019-06-26T06:53:33.908Z,12.40
2019-06-26T06:58:36.401Z,13.37
2019-06-26T07:03:39.906Z,11.80
2019-06-26T07:08:43.132Z,13.10
2019-06-26T07:13:45.678Z,11.40
2019-06-26T07:18:49.108Z,10.10
2019-06-26T07:23:52.657Z,12.40
2019-06-26T07:28:53.540Z,12.00
2019-06-26T07:33:57.090Z,13.00
2019-06-26T07:39:02.019Z,11.70
2019-06-26T07:44:05.238Z,11.17
2019-06-26T07:49:08.062Z,10.10
2019-06-26T07:54:10.518Z,10.13
2019-06-26T07:59:13.698Z,9.67
2019-06-26T08:04:16.820Z,9.87
2019-06-26T08:09:19.302Z,8.50
2019-06-26T08:14:22.319Z,8.87
2019-06-26T08:19:25.183Z,8.43
2019-06-26T08:24:28.805Z,8.50
2019-06-26T08:29:32.151Z,9.27
2019-06-26T08:34:35.484Z,10.33
2019-06-26T08:39:39.049Z,8.20
2019-06-26T08:44:42.419Z,8.27
2019-06-26T08:49:45.093Z,10.10
2019-06-26T08:54:48.728Z,9.47
2019-06-26T08:59:52.248Z,9.30
2019-06-26T09:04:55.909Z,10.07
2019-06-26T09:09:59.125Z,9.63
2019-06-26T09:15:03.759Z,11.07
2019-06-26T09:20:07.647Z,9.10
2019-06-26T09:25:21.447Z,10.77
2019-06-26T09:30:15.639Z,10.23
2019-06-26T09:35:18.861Z,9.23
2019-06-26T09:40:22.102Z,10.73
2019-06-26T09:45:25.701Z,10.00
2019-06-26T09:50:29.551Z,8.53
2019-06-26T09:55:32.879Z,7.97
2019-06-26T10:00:35.911Z,6.27
2019-06-26T10:05:39.264Z,5.40
2019-06-26T10:10:42.805Z,4.70
2019-06-26T10:15:46.134Z,5.57
2019-06-26T10:20:49.691Z,5.30
2019-06-26T10:25:53.029Z,4.97
2019-06-26T10:30:56.283Z,4.97
2019-06-26T10:35:59.890Z,4.47
2019-06-26T10:41:03.171Z,4.57
2019-06-26T10:46:06.120Z,4.57
2019-06-26T10:51:09.345Z,4.57
2019-06-26T10:56:12.542Z,4.23
2019-06-26T11:01:15.768Z,5.40
2019-06-26T11:06:18.989Z,5.00
2019-06-26T11:11:21.945Z,4.50
2019-06-26T11:16:25.264Z,4.50
2019-06-26T11:21:28.238Z,4.33
2019-06-26T11:26:31.179Z,4.30
2019-06-26T11:31:34.438Z,5.17
2019-06-26T11:36:37.730Z,4.07
2019-06-26T11:41:41.102Z,4.60
2019-06-26T11:46:44.212Z,4.30
2019-06-26T11:51:46.799Z,4.60
2019-06-26T11:56:49.698Z,3.67
2019-06-26T12:01:52.610Z,3.93
2019-06-26T12:06:55.897Z,3.87
2019-06-26T12:11:59.461Z,3.73
2019-06-26T12:17:02.983Z,3.97
2019-06-26T12:22:06.284Z,3.80
2019-06-26T12:27:09.519Z,3.93
2019-06-26T12:32:12.908Z,3.67
2019-06-26T12:37:16.460Z,3.30
2019-06-26T12:42:19.316Z,3.50
2019-06-26T12:47:22.633Z,3.20
2019-06-26T12:52:26.148Z,3.70
2019-06-26T12:57:29.397Z,4.30
2019-06-26T13:02:33.091Z,2.80
2019-06-26T13:07:36.970Z,2.40
2019-06-26T13:12:40.557Z,2.40
2019-06-26T13:17:44.186Z,2.30
2019-06-26T13:22:47.134Z,2.47
2019-06-26T13:27:50.069Z,2.40
2019-06-26T13:32:53.295Z,2.50
2019-06-26T13:37:55.926Z,3.30
2019-06-26T13:42:58.423Z,1.93
2019-06-26T13:48:01.730Z,2.80
2019-06-26T13:53:04.963Z,2.93
2019-06-26T13:58:08.306Z,2.03
2019-06-26T14:03:11.204Z,2.80
2019-06-26T14:08:14.423Z,2.43
2019-06-26T14:13:17.961Z,2.23
2019-06-26T14:18:21.563Z,2.60
2019-06-26T14:23:24.759Z,2.80
2019-06-26T14:28:27.957Z,3.50
2019-06-26T14:33:31.554Z,2.40
2019-06-26T14:38:34.481Z,2.80
2019-06-26T14:43:37.702Z,2.60
2019-06-26T14:48:41.213Z,3.30
2019-06-26T14:53:44.837Z,3.07
2019-06-26T14:58:48.037Z,3.40
2019-06-26T15:03:51.363Z,3.27
2019-06-26T15:08:54.309Z,4.10
2019-06-26T15:13:57.277Z,3.50
2019-06-26T15:19:00.926Z,4.10
2019-06-26T15:24:03.969Z,3.93
2019-06-26T15:29:06.678Z,5.30
2019-06-26T15:34:09.674Z,5.47
2019-06-26T15:39:12.595Z,4.40
2019-06-26T15:44:15.805Z,4.30
2019-06-26T15:49:18.419Z,4.53
2019-06-26T15:54:21.960Z,4.10
2019-06-26T15:59:25.187Z,4.47
2019-06-26T16:04:28.768Z,4.70
2019-06-26T16:09:32.074Z,4.80
2019-06-26T16:14:35.391Z,4.20
2019-06-26T16:19:38.643Z,4.17
2019-06-26T16:24:42.010Z,3.90
2019-06-26T16:29:48.496Z,4.23
2019-06-26T16:34:49.875Z,4.57
2019-06-26T16:39:52.738Z,4.50
2019-06-26T16:44:58.888Z,4.97
2019-06-26T16:50:02.484Z,4.47
2019-06-26T16:55:06.128Z,3.30
2019-06-26T17:00:10.487Z,5.00
2019-06-26T17:05:14.049Z,2.87
2019-06-26T17:10:17.977Z,2.43
2019-06-26T17:15:21.733Z,1.80
2019-06-26T17:20:25.350Z,2.00
2019-06-26T17:25:28.572Z,2.27
2019-06-26T17:30:32.140Z,2.20
2019-06-26T17:35:34.769Z,2.07
2019-06-26T17:40:37.749Z,2.07
2019-06-26T17:45:41.276Z,1.93
2019-06-26T17:50:44.914Z,2.50
2019-06-26T17:55:48.665Z,2.67
2019-06-26T18:00:51.966Z,2.20
2019-06-26T18:05:54.572Z,2.90
2019-06-26T18:10:58.228Z,3.10
2019-06-26T18:16:01.261Z,3.50
2019-06-26T18:21:04.603Z,3.60
2019-06-26T18:26:13.536Z,3.40
2019-06-26T18:31:13.131Z,3.80
2019-06-26T18:36:16.783Z,4.67
2019-06-26T18:41:20.402Z,3.90
2019-06-26T18:46:24.974Z,3.97
2019-06-26T18:51:28.662Z,3.83
2019-06-26T18:56:31.321Z,3.20
2019-06-26T19:01:34.743Z,3.87
2019-06-26T19:06:39.900Z,3.33
2019-06-26T19:11:45.758Z,2.60
2019-06-26T19:16:49.376Z,3.07
2019-06-26T19:21:52.386Z,3.77
2019-06-26T19:26:55.993Z,2.50
2019-06-26T19:31:59.393Z,2.50
2019-06-26T19:37:03.079Z,2.47
2019-06-26T19:42:06.752Z,2.13
2019-06-26T19:47:10.292Z,2.90
2019-06-26T19:52:13.962Z,2.80
2019-06-26T19:57:17.650Z,2.60
2019-06-26T20:02:20.927Z,2.37
2019-06-26T20:07:23.932Z,2.70
2019-06-26T20:12:27.513Z,2.27
2019-06-26T20:17:31.119Z,2.60
2019-06-26T20:22:34.173Z,2.70
2019-06-26T20:27:37.507Z,2.13
2019-06-26T20:32:40.813Z,2.70
2019-06-26T20:37:44.038Z,2.60
2019-06-26T20:42:47.262Z,2.50
2019-06-26T20:47:50.950Z,2.50
2019-06-26T20:52:53.976Z,2.63
2019-06-26T20:57:57.594Z,2.97
2019-06-26T21:03:01.947Z,2.23
2019-06-26T21:08:05.245Z,2.90
2019-06-26T21:13:08.751Z,2.90
2019-06-26T21:18:13.818Z,2.60
2019-06-26T21:23:18.942Z,2.40
2019-06-26T21:28:22.463Z,2.40
2019-06-26T21:33:24.964Z,2.50
2019-06-26T21:38:28.517Z,1.93
2019-06-26T21:43:31.398Z,2.90
2019-06-26T21:48:34.732Z,3.50
2019-06-26T21:53:38.308Z,2.40
2019-06-26T21:58:41.225Z,2.60
2019-06-26T22:03:44.397Z,3.13
2019-06-26T22:08:47.336Z,2.30
2019-06-26T22:13:50.883Z,2.60
2019-06-26T22:18:54.269Z,2.83
2019-06-26T22:23:57.681Z,2.33
2019-06-26T22:29:01.292Z,2.90
2019-06-26T22:34:04.559Z,2.57
2019-06-26T22:39:07.193Z,3.30
2019-06-26T22:44:10.368Z,2.57
2019-06-26T22:49:13.854Z,2.63
2019-06-26T22:54:19.753Z,2.87
2019-06-26T22:59:22.612Z,3.10
2019-06-26T23:04:26.403Z,3.25
2019-06-26T23:09:30.196Z,2.70
2019-06-26T23:14:33.777Z,2.80
2019-06-26T23:19:37.032Z,3.03
2019-06-26T23:24:40.295Z,3.53
2019-06-26T23:29:43.514Z,3.00
2019-06-26T23:34:46.060Z,3.40
2019-06-26T23:39:49.832Z,3.57
2019-06-26T23:44:52.791Z,3.10
2019-06-26T23:49:55.731Z,2.80
2019-06-26T23:54:59.274Z,3.27
